createdAt,value
2022-08-22T00:06:11.880Z,1.7
2022-08-22T00:36:12.674Z,1.6
2022-08-22T01:06:20.060Z,1.5
2022-08-22T01:36:28.212Z,1.5
2022-08-22T02:06:19.931Z,1.5
2022-08-22T02:36:23.637Z,1.6
2022-08-22T03:06:32.260Z,1.5
2022-08-22T03:36:32.207Z,1.5
2022-08-22T04:06:33.223Z,1.5
2022-08-22T04:36:29.437Z,1.5
2022-08-22T05:06:31.945Z,1.5
2022-08-22T05:36:33.199Z,1.5
2022-08-22T06:06:46.472Z,1.3
2022-08-22T06:36:45.362Z,1.5
2022-08-22T07:06:43.597Z,1.5
2022-08-22T07:36:46.347Z,1.5
2022-08-22T08:06:45.601Z,1.5
2022-08-22T08:36:52.895Z,1.6
2022-08-22T09:07:25.403Z,1.3
2022-08-22T09:37:14.010Z,1.4
2022-08-22T10:07:11.152Z,1.4
2022-08-22T10:37:14.686Z,1.5
2022-08-22T11:07:21.446Z,1.4
2022-08-22T11:37:24.126Z,1.3
2022-08-22T12:07:30.844Z,1.5
2022-08-22T12:37:35.679Z,1.6
2022-08-22T13:07:39.125Z,1.8
2022-08-22T13:37:46.346Z,1.6
2022-08-22T14:07:53.926Z,1.7
2022-08-22T14:37:57.511Z,1.6
2022-08-22T15:08:02.901Z,1.6
2022-08-22T15:38:11.337Z,1.7
2022-08-22T16:08:16.041Z,1.7
2022-08-22T16:38:32.659Z,1.7
2022-08-22T17:08:50.127Z,1.7
2022-08-22T17:38:44.542Z,1.8
2022-08-22T18:09:13.446Z,1.9
2022-08-22T18:38:44.669Z,2.1
2022-08-22T19:09:02.947Z,1.9
2022-08-22T19:39:08.915Z,2.2
2022-08-22T20:09:02.535Z,2.1
2022-08-22T20:38:58.389Z,2.2
2022-08-22T21:09:20.900Z,2.3
2022-08-22T21:39:05.571Z,2.2
2022-08-22T22:09:06.744Z,2
2022-08-22T22:39:12.159Z,2.3
2022-08-22T23:09:13.328Z,2.1
2022-08-22T23:39:18.535Z,2.6
